createdAt,value
2023-05-14T00:02:18.194Z,12.27
2023-05-14T00:04:50.936Z,12.22
2023-05-14T00:07:23.681Z,12.16
2023-05-14T00:09:56.531Z,12.13
2023-05-14T00:12:30.819Z,12.09
2023-05-14T00:15:03.961Z,12.05
2023-05-14T00:17:37.122Z,12.02
2023-05-14T00:20:12.212Z,12.01
2023-05-14T00:22:44.932Z,12.00
2023-05-14T00:25:17.887Z,11.99
2023-05-14T00:27:52.233Z,11.98
2023-05-14T00:30:25.235Z,11.98
2023-05-14T00:32:58.138Z,12.00
2023-05-14T00:35:30.836Z,12.01
2023-05-14T00:38:03.776Z,12.02
2023-05-14T00:40:36.632Z,12.03
2023-05-14T00:43:10.955Z,12.03
2023-05-14T00:45:43.917Z,12.07
2023-05-14T00:48:16.662Z,12.09
2023-05-14T00:50:50.654Z,12.14
2023-05-14T00:53:23.489Z,12.19
2023-05-14T00:55:56.218Z,12.26
2023-05-14T00:58:30.698Z,12.31
2023-05-14T01:01:03.890Z,12.37
2023-05-14T01:03:37.504Z,12.40
2023-05-14T01:06:13.547Z,12.47
2023-05-14T01:08:51.840Z,12.53
2023-05-14T01:11:27.178Z,12.56
2023-05-14T01:14:04.612Z,12.62
2023-05-14T01:16:38.302Z,12.64
2023-05-14T01:19:18.620Z,12.68
2023-05-14T01:21:52.869Z,12.69
2023-05-14T01:24:25.578Z,12.73
2023-05-14T01:27:02.898Z,12.75
2023-05-14T01:29:38.931Z,12.78
2023-05-14T01:32:11.740Z,12.80
2023-05-14T01:34:45.860Z,12.86
2023-05-14T01:37:20.360Z,12.91
2023-05-14T01:39:53.344Z,12.98
2023-05-14T01:42:26.570Z,13.05
2023-05-14T01:44:59.590Z,13.10
2023-05-14T01:47:32.404Z,13.18
2023-05-14T01:50:05.570Z,13.25
2023-05-14T01:52:39.750Z,13.32
2023-05-14T01:55:12.445Z,13.38
2023-05-14T01:57:45.195Z,13.43
2023-05-14T02:00:18.178Z,13.50
2023-05-14T02:02:51.105Z,13.55
2023-05-14T02:05:23.955Z,13.60
2023-05-14T02:07:58.285Z,13.66
2023-05-14T02:10:31.031Z,13.70
2023-05-14T02:13:04.157Z,13.73
2023-05-14T02:15:36.891Z,13.80
2023-05-14T02:18:09.774Z,13.83
2023-05-14T02:20:43.014Z,13.87
2023-05-14T02:23:17.184Z,13.90
2023-05-14T02:25:49.996Z,13.92
2023-05-14T02:28:22.781Z,13.95
2023-05-14T02:30:59.580Z,13.95
2023-05-14T02:33:32.363Z,13.96
2023-05-14T02:36:05.122Z,14.00
2023-05-14T02:38:39.430Z,14.01
2023-05-14T02:41:12.179Z,14.02
2023-05-14T02:43:44.942Z,14.04
2023-05-14T02:46:17.710Z,14.06
2023-05-14T02:48:50.530Z,14.07
2023-05-14T02:51:23.700Z,14.10
2023-05-14T02:53:57.936Z,14.11
2023-05-14T02:56:30.655Z,14.13
2023-05-14T02:59:03.352Z,14.16
2023-05-14T03:01:36.528Z,14.16
2023-05-14T03:04:09.841Z,14.18
2023-05-14T03:06:42.896Z,14.19
2023-05-14T03:09:17.152Z,14.19
2023-05-14T03:11:51.507Z,14.21
2023-05-14T03:14:24.399Z,14.21
2023-05-14T03:16:57.231Z,14.21
2023-05-14T03:19:29.990Z,14.22
2023-05-14T03:22:02.673Z,14.23
2023-05-14T03:24:39.004Z,14.25
2023-05-14T03:27:11.831Z,14.26
2023-05-14T03:29:44.498Z,14.26
2023-05-14T03:32:17.185Z,14.26
2023-05-14T03:34:49.904Z,14.27
2023-05-14T03:37:22.681Z,14.28
2023-05-14T03:39:56.823Z,14.29
2023-05-14T03:42:29.559Z,14.31
2023-05-14T03:45:02.209Z,14.30
2023-05-14T03:47:35.092Z,14.32
2023-05-14T03:50:08.631Z,14.33
2023-05-14T03:52:41.610Z,14.33
2023-05-14T03:55:15.679Z,14.34
2023-05-14T03:57:49.072Z,14.36
2023-05-14T04:00:22.036Z,14.36
2023-05-14T04:02:55.122Z,14.36
2023-05-14T04:05:27.917Z,14.35
2023-05-14T04:08:00.938Z,14.34
2023-05-14T04:10:35.404Z,14.34
2023-05-14T04:13:08.065Z,14.34
2023-05-14T04:15:40.819Z,14.31
2023-05-14T04:18:14.079Z,14.29
2023-05-14T04:20:46.759Z,14.27
2023-05-14T04:23:19.802Z,14.24
2023-05-14T04:25:53.920Z,14.22
2023-05-14T04:28:26.820Z,14.22
2023-05-14T04:30:59.474Z,14.23
2023-05-14T04:33:32.500Z,14.23
2023-05-14T04:36:05.790Z,14.23
2023-05-14T04:38:38.532Z,14.27
2023-05-14T04:41:12.596Z,14.30
2023-05-14T04:43:46.074Z,14.33
2023-05-14T04:46:19.340Z,14.36
2023-05-14T04:48:52.091Z,14.43
2023-05-14T04:51:24.768Z,14.48
2023-05-14T04:53:57.616Z,14.53
2023-05-14T04:56:31.820Z,14.59
2023-05-14T04:59:04.559Z,14.66
2023-05-14T05:01:37.444Z,14.71
2023-05-14T05:04:10.346Z,14.76
2023-05-14T05:06:43.127Z,14.82
2023-05-14T05:09:16.401Z,14.85
2023-05-14T05:11:50.562Z,14.90
2023-05-14T05:14:23.351Z,14.93
2023-05-14T05:16:56.116Z,14.99
2023-05-14T05:19:39.758Z,15.00
2023-05-14T05:22:16.553Z,15.06
2023-05-14T05:24:50.089Z,15.10
2023-05-14T05:27:24.272Z,15.15
2023-05-14T05:29:57.598Z,15.20
2023-05-14T05:32:30.752Z,15.24
2023-05-14T05:35:03.682Z,15.30
2023-05-14T05:37:36.418Z,15.36
2023-05-14T05:40:11.012Z,15.39
2023-05-14T05:42:45.423Z,15.46
2023-05-14T05:45:18.137Z,15.53
2023-05-14T05:47:50.910Z,15.59
2023-05-14T05:50:23.851Z,15.66
2023-05-14T05:52:56.666Z,15.71
2023-05-14T05:55:29.600Z,15.76
2023-05-14T05:58:03.657Z,15.80
2023-05-14T06:00:36.393Z,15.83
2023-05-14T06:03:09.465Z,15.86
2023-05-14T06:05:42.294Z,15.89
2023-05-14T06:08:15.087Z,15.93
2023-05-14T06:10:48.029Z,15.98
2023-05-14T06:13:22.224Z,16.02
2023-05-14T06:15:54.951Z,16.08
2023-05-14T06:18:27.663Z,16.15
2023-05-14T06:21:00.864Z,16.20
2023-05-14T06:23:33.575Z,16.26
2023-05-14T06:26:06.634Z,16.30
2023-05-14T06:28:40.733Z,16.36
2023-05-14T06:31:13.769Z,16.38
2023-05-14T06:33:46.506Z,16.39
2023-05-14T06:36:19.229Z,16.42
2023-05-14T06:38:51.961Z,16.44
2023-05-14T06:41:24.799Z,16.47
2023-05-14T06:43:59.027Z,16.49
2023-05-14T06:46:31.823Z,16.50
2023-05-14T06:49:04.787Z,16.52
2023-05-14T06:51:39.643Z,16.55
2023-05-14T06:54:12.367Z,16.58
2023-05-14T06:56:45.106Z,16.59
2023-05-14T06:59:19.859Z,16.62
2023-05-14T07:01:53.196Z,16.64
2023-05-14T07:04:26.039Z,16.64
2023-05-14T07:06:59.033Z,16.68
2023-05-14T07:09:32.070Z,16.72
2023-05-14T07:12:05.946Z,16.75
2023-05-14T07:14:40.334Z,16.80
2023-05-14T07:17:13.253Z,16.85
2023-05-14T07:19:47.322Z,16.89
2023-05-14T07:22:20.535Z,16.91
2023-05-14T07:24:53.521Z,16.93
2023-05-14T07:27:26.445Z,16.95
2023-05-14T07:30:00.780Z,16.95
2023-05-14T07:32:33.947Z,16.96
2023-05-14T07:35:07.775Z,16.95
2023-05-14T07:37:41.122Z,16.95
2023-05-14T07:40:14.582Z,16.98
2023-05-14T07:42:48.883Z,16.97
2023-05-14T07:45:23.414Z,16.97
2023-05-14T07:47:56.357Z,16.98
2023-05-14T07:50:29.070Z,17.00
2023-05-14T07:53:01.834Z,17.01
2023-05-14T07:55:34.633Z,17.03
2023-05-14T07:58:07.560Z,17.04
2023-05-14T08:00:42.145Z,17.03
2023-05-14T08:03:15.480Z,17.05
2023-05-14T08:05:48.369Z,17.07
2023-05-14T08:08:21.997Z,17.10
2023-05-14T08:10:54.782Z,17.15
2023-05-14T08:13:27.746Z,17.21
2023-05-14T08:16:02.653Z,17.28
2023-05-14T08:18:35.472Z,17.38
2023-05-14T08:21:08.586Z,17.49
2023-05-14T08:23:41.761Z,17.60
2023-05-14T08:26:14.491Z,17.73
2023-05-14T08:28:47.578Z,17.86
2023-05-14T08:31:21.761Z,18.01
2023-05-14T08:33:55.111Z,18.11
2023-05-14T08:36:28.169Z,18.20
2023-05-14T08:39:01.679Z,18.26
2023-05-14T08:41:34.555Z,18.33
2023-05-14T08:44:09.430Z,18.41
2023-05-14T08:46:43.649Z,18.50
2023-05-14T08:49:23.172Z,18.63
2023-05-14T08:51:56.197Z,18.72
2023-05-14T08:54:30.064Z,18.85
2023-05-14T08:57:04.162Z,18.95
2023-05-14T08:59:36.943Z,19.02
2023-05-14T09:02:12.398Z,19.03
2023-05-14T09:04:46.060Z,19.03
2023-05-14T09:07:18.818Z,18.96
2023-05-14T09:09:52.808Z,18.86
2023-05-14T09:12:25.724Z,18.70
2023-05-14T09:14:59.363Z,18.53
2023-05-14T09:17:35.916Z,18.36
2023-05-14T09:20:10.685Z,18.18
2023-05-14T09:22:44.067Z,18.06
2023-05-14T09:25:17.440Z,17.95
2023-05-14T09:27:55.363Z,17.92
2023-05-14T09:30:30.464Z,17.88
2023-05-14T09:33:07.937Z,17.90
2023-05-14T09:35:43.489Z,17.94
2023-05-14T09:38:17.014Z,18.01
2023-05-14T09:40:50.402Z,18.09
2023-05-14T09:43:23.352Z,18.18
2023-05-14T09:45:56.589Z,18.25
2023-05-14T09:48:31.714Z,18.36
2023-05-14T09:51:05.794Z,18.47
2023-05-14T09:53:39.306Z,18.60
2023-05-14T09:56:12.570Z,18.75
2023-05-14T09:58:45.840Z,18.93
2023-05-14T10:01:20.442Z,19.12
2023-05-14T10:03:55.193Z,19.30
2023-05-14T10:06:29.922Z,19.50
2023-05-14T10:09:04.190Z,19.67
2023-05-14T10:11:39.317Z,19.82
2023-05-14T10:14:18.051Z,19.94
2023-05-14T10:16:52.051Z,20.05
2023-05-14T10:19:27.515Z,20.14
2023-05-14T10:22:04.440Z,20.21
2023-05-14T10:24:39.066Z,20.28
2023-05-14T10:27:12.075Z,20.32
2023-05-14T10:29:49.479Z,20.32
2023-05-14T10:32:23.820Z,20.31
2023-05-14T10:34:59.492Z,20.28
2023-05-14T10:37:32.184Z,20.26
2023-05-14T10:40:06.409Z,20.22
2023-05-14T10:42:41.020Z,20.18
2023-05-14T10:45:14.702Z,20.10
2023-05-14T10:47:48.224Z,19.98
2023-05-14T10:50:23.861Z,19.85
2023-05-14T10:52:57.770Z,19.71
2023-05-14T10:55:31.124Z,19.56
2023-05-14T10:58:05.472Z,19.45
2023-05-14T11:00:38.630Z,19.32
2023-05-14T11:03:13.269Z,19.19
2023-05-14T11:05:48.052Z,19.07
2023-05-14T11:08:23.936Z,18.98
2023-05-14T11:10:59.037Z,18.90
2023-05-14T11:13:33.096Z,18.85
2023-05-14T11:18:42.309Z,18.81
2023-05-14T11:21:17.931Z,18.84
2023-05-14T11:23:51.155Z,18.89
2023-05-14T11:26:24.808Z,18.96
2023-05-14T11:28:57.776Z,19.05
2023-05-14T11:31:31.463Z,19.14
2023-05-14T11:34:07.292Z,19.25
2023-05-14T11:36:42.313Z,19.35
2023-05-14T11:39:19.371Z,19.48
2023-05-14T11:41:52.604Z,19.65
2023-05-14T11:44:25.743Z,19.86
2023-05-14T11:46:59.382Z,20.07
2023-05-14T11:49:33.393Z,20.25
2023-05-14T11:52:08.984Z,20.41
2023-05-14T11:54:42.892Z,20.50
2023-05-14T11:57:17.755Z,20.53
2023-05-14T11:59:51.085Z,20.49
2023-05-14T12:02:24.557Z,20.38
2023-05-14T12:04:57.834Z,20.24
2023-05-14T12:07:32.962Z,20.08
2023-05-14T12:10:06.714Z,19.93
2023-05-14T12:12:40.064Z,19.77
2023-05-14T12:15:14.206Z,19.57
2023-05-14T12:17:52.150Z,19.41
2023-05-14T12:20:26.740Z,19.22
2023-05-14T12:23:01.529Z,19.05
2023-05-14T12:25:34.696Z,18.91
2023-05-14T12:28:15.805Z,18.74
2023-05-14T12:30:49.257Z,18.57
2023-05-14T12:33:24.166Z,18.45
2023-05-14T12:36:07.337Z,18.36
2023-05-14T12:38:49.889Z,18.31
2023-05-14T12:41:23.165Z,18.33
2023-05-14T12:43:56.379Z,18.37
2023-05-14T12:46:29.711Z,18.47
2023-05-14T12:49:03.347Z,18.60
2023-05-14T12:51:36.791Z,18.77
2023-05-14T12:54:13.133Z,18.96
2023-05-14T12:56:46.294Z,19.13
2023-05-14T12:59:19.806Z,19.27
2023-05-14T13:01:53.377Z,19.38
2023-05-14T13:04:27.358Z,19.44
2023-05-14T13:07:01.756Z,19.50
2023-05-14T13:09:36.823Z,19.57
2023-05-14T13:12:10.305Z,19.70
2023-05-14T13:14:43.590Z,19.85
2023-05-14T13:17:16.922Z,20.06
2023-05-14T13:19:50.146Z,20.25
2023-05-14T13:22:23.053Z,20.43
2023-05-14T13:24:58.118Z,20.58
2023-05-14T13:27:31.335Z,20.71
2023-05-14T13:30:04.511Z,20.80
2023-05-14T13:32:37.539Z,20.86
2023-05-14T13:35:11.223Z,20.91
2023-05-14T13:37:44.842Z,20.94
2023-05-14T13:40:19.680Z,20.96
2023-05-14T13:42:52.562Z,20.97
2023-05-14T13:45:25.873Z,20.98
2023-05-14T13:47:58.825Z,20.98
2023-05-14T13:50:31.690Z,20.98
2023-05-14T13:53:04.616Z,21.00
2023-05-14T13:55:38.854Z,21.01
2023-05-14T13:58:11.655Z,21.01
2023-05-14T14:00:44.429Z,21.00
2023-05-14T14:03:17.269Z,20.98
2023-05-14T14:05:50.206Z,20.94
2023-05-14T14:08:24.279Z,20.86
2023-05-14T14:10:58.591Z,20.77
2023-05-14T14:13:31.319Z,20.66
2023-05-14T14:16:04.534Z,20.55
2023-05-14T14:18:37.730Z,20.43
2023-05-14T14:21:10.588Z,20.31
2023-05-14T14:23:43.269Z,20.19
2023-05-14T14:26:17.335Z,20.09
2023-05-14T14:28:50.093Z,20.01
2023-05-14T14:31:22.918Z,19.95
2023-05-14T14:33:55.610Z,19.90
2023-05-14T14:36:29.197Z,19.86
2023-05-14T14:39:01.958Z,19.83
2023-05-14T14:41:36.015Z,19.81
2023-05-14T14:44:09.386Z,19.77
2023-05-14T14:46:42.926Z,19.76
2023-05-14T14:49:15.702Z,19.75
2023-05-14T14:51:48.440Z,19.75
2023-05-14T14:54:21.598Z,19.77
2023-05-14T14:56:55.936Z,19.79
2023-05-14T14:59:29.058Z,19.82
2023-05-14T15:02:01.795Z,19.82
2023-05-14T15:04:35.061Z,19.84
2023-05-14T15:07:07.866Z,19.85
2023-05-14T15:09:40.741Z,19.88
2023-05-14T15:12:15.039Z,19.92
2023-05-14T15:14:47.879Z,20.00
2023-05-14T15:17:20.726Z,20.05
2023-05-14T15:19:53.796Z,20.08
2023-05-14T15:22:26.460Z,20.09
2023-05-14T15:24:59.211Z,20.09
2023-05-14T15:27:33.262Z,20.03
2023-05-14T15:30:06.624Z,19.94
2023-05-14T15:32:39.362Z,19.87
2023-05-14T15:35:12.504Z,19.79
2023-05-14T15:37:45.659Z,19.69
2023-05-14T15:40:20.555Z,19.58
2023-05-14T15:42:54.699Z,19.47
2023-05-14T15:45:28.239Z,19.37
2023-05-14T15:48:01.058Z,19.22
2023-05-14T15:50:33.964Z,19.08
2023-05-14T15:53:06.836Z,18.92
2023-05-14T15:55:39.615Z,18.76
2023-05-14T15:58:13.949Z,18.60
2023-05-14T16:00:47.397Z,18.36
2023-05-14T16:03:20.513Z,18.09
2023-05-14T16:05:53.544Z,17.80
2023-05-14T16:08:26.719Z,17.51
2023-05-14T16:11:00.135Z,17.25
2023-05-14T16:13:38.463Z,17.01
2023-05-14T16:16:12.154Z,16.81
2023-05-14T16:18:45.348Z,16.62
2023-05-14T16:21:19.088Z,16.46
2023-05-14T16:23:52.853Z,16.32
2023-05-14T16:26:28.257Z,16.21
2023-05-14T16:29:03.024Z,16.10
2023-05-14T16:31:35.810Z,16.02
2023-05-14T16:34:09.000Z,15.95
2023-05-14T16:36:42.497Z,15.89
2023-05-14T16:39:16.693Z,15.83
2023-05-14T16:41:53.069Z,15.80
2023-05-14T16:44:29.735Z,15.78
2023-05-14T16:47:02.846Z,15.77
2023-05-14T16:49:36.067Z,15.76
2023-05-14T16:52:12.265Z,15.73
2023-05-14T16:54:45.560Z,15.71
2023-05-14T16:57:19.162Z,15.70
2023-05-14T16:59:55.299Z,15.67
2023-05-14T17:02:28.729Z,15.65
2023-05-14T17:05:04.454Z,15.64
2023-05-14T17:07:39.310Z,15.61
2023-05-14T17:10:12.859Z,15.60
2023-05-14T17:13:10.902Z,15.58
2023-05-14T17:15:47.090Z,15.56
2023-05-14T17:18:20.939Z,15.56
2023-05-14T17:20:54.244Z,15.55
2023-05-14T17:23:27.190Z,15.54
2023-05-14T17:26:00.132Z,15.53
2023-05-14T17:28:33.594Z,15.53
2023-05-14T17:31:08.164Z,15.51
2023-05-14T17:33:41.142Z,15.48
2023-05-14T17:36:14.380Z,15.44
2023-05-14T17:38:47.610Z,15.43
2023-05-14T17:41:20.517Z,15.40
2023-05-14T17:43:53.857Z,15.38
2023-05-14T17:46:28.092Z,15.37
2023-05-14T17:49:01.037Z,15.35
2023-05-14T17:51:34.267Z,15.35
2023-05-14T17:54:09.270Z,15.34
2023-05-14T17:56:50.925Z,15.32
2023-05-14T17:59:24.570Z,15.31
2023-05-14T18:01:59.536Z,15.29
2023-05-14T18:04:32.476Z,15.29
2023-05-14T18:07:06.084Z,15.27
2023-05-14T18:09:39.540Z,15.27
2023-05-14T18:12:12.616Z,15.25
2023-05-14T18:14:45.855Z,15.23
2023-05-14T18:17:21.035Z,15.20
2023-05-14T18:19:54.194Z,15.17
2023-05-14T18:22:27.308Z,15.15
2023-05-14T18:25:00.559Z,15.12
2023-05-14T18:27:33.862Z,15.10
2023-05-14T18:30:07.504Z,15.10
2023-05-14T18:32:42.113Z,15.09
2023-05-14T18:35:16.272Z,15.08
2023-05-14T18:37:49.367Z,15.08
2023-05-14T18:40:24.587Z,15.09
2023-05-14T18:42:59.718Z,15.10
2023-05-14T18:45:35.354Z,15.12
2023-05-14T18:48:10.418Z,15.12
2023-05-14T18:50:43.906Z,15.12
2023-05-14T18:53:16.992Z,15.12
2023-05-14T18:55:50.401Z,15.13
2023-05-14T18:58:23.482Z,15.13
2023-05-14T19:00:57.876Z,15.13
2023-05-14T19:03:32.833Z,15.13
2023-05-14T19:06:05.825Z,15.12
2023-05-14T19:08:39.832Z,15.11
2023-05-14T19:11:13.358Z,15.10
2023-05-14T19:13:48.316Z,15.08
2023-05-14T19:16:21.704Z,15.06
2023-05-14T19:18:56.698Z,15.05
2023-05-14T19:21:32.681Z,15.02
2023-05-14T19:24:06.287Z,15.00
2023-05-14T19:26:40.870Z,14.99
2023-05-14T19:29:18.486Z,14.98
2023-05-14T19:31:51.932Z,14.96
2023-05-14T19:34:27.713Z,14.95
2023-05-14T19:37:01.307Z,14.93
2023-05-14T19:39:34.890Z,14.94
2023-05-14T19:42:08.277Z,14.92
2023-05-14T19:44:41.831Z,14.89
2023-05-14T19:47:15.161Z,14.88
2023-05-14T19:49:50.025Z,14.88
2023-05-14T19:52:26.069Z,14.87
2023-05-14T19:54:59.412Z,14.86
2023-05-14T19:57:32.938Z,14.87
2023-05-14T20:00:08.959Z,14.86
2023-05-14T20:02:43.630Z,14.85
2023-05-14T20:05:19.262Z,14.88
2023-05-14T20:07:54.168Z,14.87
2023-05-14T20:10:27.339Z,14.88
2023-05-14T20:13:01.182Z,14.88
2023-05-14T20:15:37.050Z,14.91
2023-05-14T20:18:11.161Z,14.90
2023-05-14T20:20:49.427Z,14.92
2023-05-14T20:23:22.973Z,14.92
2023-05-14T20:25:56.164Z,14.92
2023-05-14T20:28:29.939Z,14.93
2023-05-14T20:31:04.952Z,14.93
2023-05-14T20:33:40.794Z,14.92
2023-05-14T20:36:15.268Z,14.92
2023-05-14T20:38:50.105Z,14.93
2023-05-14T20:41:23.980Z,14.93
2023-05-14T20:43:58.007Z,14.92
2023-05-14T20:46:30.947Z,14.91
2023-05-14T20:49:03.846Z,14.91
2023-05-14T20:51:38.754Z,14.89
2023-05-14T20:54:11.580Z,14.86
2023-05-14T20:56:46.107Z,14.84
2023-05-14T20:59:19.638Z,14.83
2023-05-14T21:01:54.032Z,14.79
2023-05-14T21:04:27.128Z,14.77
2023-05-14T21:07:02.962Z,14.73
2023-05-14T21:09:37.387Z,14.72
2023-05-14T21:12:12.139Z,14.71
2023-05-14T21:14:45.965Z,14.70
2023-05-14T21:17:20.885Z,14.69
2023-05-14T21:19:54.654Z,14.69
2023-05-14T21:22:29.387Z,14.69
2023-05-14T21:25:02.893Z,14.68
2023-05-14T21:27:36.118Z,14.67
2023-05-14T21:30:10.244Z,14.66
2023-05-14T21:32:43.542Z,14.63
2023-05-14T21:35:16.917Z,14.61
2023-05-14T21:37:51.941Z,14.60
2023-05-14T21:40:25.182Z,14.56
2023-05-14T21:42:58.519Z,14.52
2023-05-14T21:45:31.728Z,14.49
2023-05-14T21:48:04.620Z,14.44
2023-05-14T21:50:37.773Z,14.40
2023-05-14T21:53:11.883Z,14.35
2023-05-14T21:55:44.689Z,14.32
2023-05-14T21:58:17.613Z,14.29
2023-05-14T22:00:50.433Z,14.26
2023-05-14T22:03:23.369Z,14.26
2023-05-14T22:05:56.666Z,14.22
2023-05-14T22:08:31.254Z,14.21
2023-05-14T22:11:04.188Z,14.20
2023-05-14T22:13:40.966Z,14.19
2023-05-14T22:16:14.296Z,14.19
2023-05-14T22:18:47.253Z,14.19
2023-05-14T22:21:20.149Z,14.18
2023-05-14T22:23:54.693Z,14.18
2023-05-14T22:26:27.391Z,14.20
2023-05-14T22:29:00.592Z,14.20
2023-05-14T22:31:33.497Z,14.22
2023-05-14T22:34:06.495Z,14.22
2023-05-14T22:36:39.677Z,14.23
2023-05-14T22:39:13.899Z,14.25
2023-05-14T22:41:46.778Z,14.25
2023-05-14T22:44:19.503Z,14.27
2023-05-14T22:46:52.375Z,14.27
2023-05-14T22:49:25.209Z,14.28
2023-05-14T22:51:58.172Z,14.32
2023-05-14T22:54:32.301Z,14.33
2023-05-14T22:57:05.241Z,14.34
2023-05-14T22:59:39.465Z,14.36
2023-05-14T23:02:12.262Z,14.37
2023-05-14T23:04:45.028Z,14.38
2023-05-14T23:07:18.540Z,14.39
2023-05-14T23:09:52.683Z,14.41
2023-05-14T23:12:25.344Z,14.40
2023-05-14T23:14:59.183Z,14.42
2023-05-14T23:17:32.261Z,14.43
2023-05-14T23:20:06.251Z,14.43
2023-05-14T23:22:38.867Z,14.45
2023-05-14T23:25:14.213Z,14.46
2023-05-14T23:27:46.922Z,14.47
2023-05-14T23:30:19.567Z,14.47
2023-05-14T23:32:52.426Z,14.47
2023-05-14T23:35:25.322Z,14.47
2023-05-14T23:37:58.123Z,14.46
2023-05-14T23:40:32.301Z,14.47
2023-05-14T23:43:05.353Z,14.47
2023-05-14T23:45:37.977Z,14.45
2023-05-14T23:48:10.871Z,14.46
2023-05-14T23:50:43.944Z,14.48
2023-05-14T23:53:16.689Z,14.47
2023-05-14T23:55:51.126Z,14.48
2023-05-14T23:58:24.057Z,14.47
